Time;durP1;ratioP1;P1;durP2;ratioP2;P2;SDS_P1;SDS_P2;PMS_P1;PMS_P2;Temp;Humidity;BMP_temperature;BMP_pressure;BME280_temperature;BME280_humidity;BME280_pressure;Samples;Min_cycle;Max_cycle;Signal;HPM_P1;HPM_P2
2022/12/30 00:00:56;;;;;;;;;4.33;3.67;;;;;24.06;37.68;101054.00;4970523;28;45560;-72
2022/12/30 00:03:21;;;;;;;;;2.00;2.00;;;;;24.05;37.67;101046.03;4973907;28;45505;-72
2022/12/30 00:05:47;;;;;;;;;4.00;3.00;;;;;24.05;37.36;101043.31;4989094;28;45863;-72
2022/12/30 00:10:56;;;;;;;;;2.67;2.67;;;;;23.94;37.60;101018.22;5005768;28;45450;-72
2022/12/30 00:35:30;;;;;;;;;2.00;2.00;;;;;23.93;37.79;101016.53;5022306;28;45871;-72
2022/12/30 00:37:55;;;;;;;;;2.00;2.00;;;;;23.92;37.50;101012.09;4988152;27;47543;-72
2022/12/30 00:40:20;;;;;;;;;2.33;2.33;;;;;23.92;37.50;101003.97;4999742;28;45442;-73
2022/12/30 00:45:30;;;;;;;;;2.67;2.00;;;;;23.90;37.47;100994.28;4970175;28;45474;-72
2022/12/30 00:47:55;;;;;;;;;1.33;1.33;;;;;23.89;37.64;101001.59;4989025;28;45403;-73
2022/12/30 00:58:32;;;;;;;;;2.00;2.00;;;;;23.85;37.53;101008.34;4975022;28;45701;-73
2022/12/30 01:00:57;;;;;;;;;1.67;1.67;;;;;23.87;37.43;101005.50;5000778;28;47967;-73
2022/12/30 01:03:23;;;;;;;;;1.00;1.00;;;;;23.81;37.87;100990.72;4989173;27;45497;-73
2022/12/30 01:05:48;;;;;;;;;2.33;1.67;;;;;23.81;37.62;100985.31;4978825;28;45427;-73
2022/12/30 01:08:13;;;;;;;;;2.00;2.00;;;;;23.82;37.58;100987.84;5001552;28;46001;-72
2022/12/30 01:10:39;;;;;;;;;3.00;1.00;;;;;23.74;37.63;100963.44;5008014;28;50503;-73
2022/12/30 01:13:05;;;;;;;;;1.67;1.67;;;;;23.78;37.70;100972.94;4973434;28;45420;-73
2022/12/30 01:15:31;;;;;;;;;2.00;2.00;;;;;23.81;37.53;100974.47;4981228;28;45752;-73
2022/12/30 01:17:56;;;;;;;;;3.00;3.00;;;;;23.82;37.67;100978.84;4971692;28;46005;-73
2022/12/30 01:20:22;;;;;;;;;2.00;2.00;;;;;23.81;37.68;100975.31;5011653;28;45440;-74
2022/12/30 01:22:47;;;;;;;;;2.00;2.00;;;;;23.80;37.47;100975.47;4990566;27;45671;-73
2022/12/30 01:25:12;;;;;;;;;3.67;2.00;;;;;23.79;37.56;100974.63;4977979;28;45419;-73
2022/12/30 01:27:38;;;;;;;;;1.67;1.00;;;;;23.78;37.43;100969.34;4987444;27;46427;-72
2022/12/30 01:30:03;;;;;;;;;2.00;2.00;;;;;23.76;37.94;100969.53;4977418;28;45529;-72
2022/12/30 01:32:30;;;;;;;;;3.00;1.00;;;;;23.77;37.48;100978.50;4969844;28;45424;-72
2022/12/30 01:34:56;;;;;;;;;2.33;2.33;;;;;23.70;37.82;100962.06;5020735;27;45455;-72
2022/12/30 01:37:23;;;;;;;;;2.00;2.00;;;;;23.74;37.65;100974.25;5003004;27;46336;-73
2022/12/30 01:39:48;;;;;;;;;2.33;2.33;;;;;23.71;37.60;100969.19;4973814;28;45684;-72
2022/12/30 01:42:18;;;;;;;;;1.33;1.33;;;;;23.74;37.63;100968.00;4976152;28;45448;-72
2022/12/30 01:45:05;;;;;;;;;3.33;2.67;;;;;23.74;37.43;100971.56;5021974;28;45451;-73
2022/12/30 01:47:43;;;;;;;;;2.00;2.00;;;;;23.74;37.71;100976.97;4973588;28;46192;-73
2022/12/30 01:50:12;;;;;;;;;3.00;3.00;;;;;23.73;37.52;100980.72;4972300;28;45429;-72
2022/12/30 01:52:42;;;;;;;;;1.00;1.00;;;;;23.73;37.34;100967.16;4972603;28;45644;-73
2022/12/30 01:55:16;;;;;;;;;2.33;2.33;;;;;23.71;37.60;100961.06;4972091;28;46415;-72
2022/12/30 01:57:45;;;;;;;;;2.33;2.33;;;;;23.72;37.24;100964.59;4973540;28;45370;-73
2022/12/30 02:00:11;;;;;;;;;1.00;1.00;;;;;23.71;37.31;100966.47;5004877;28;46341;-73
2022/12/30 02:02:36;;;;;;;;;3.33;2.67;;;;;23.67;37.42;100963.22;4984464;28;45847;-73
2022/12/30 02:05:05;;;;;;;;;2.33;2.33;;;;;23.68;37.68;100964.94;4972151;28;45572;-72
2022/12/30 02:07:38;;;;;;;;;1.00;1.00;;;;;23.68;37.68;100966.81;4978198;28;45660;-73
2022/12/30 02:10:07;;;;;;;;;1.33;1.33;;;;;23.67;37.80;100959.69;4977298;28;45502;-72
2022/12/30 02:12:32;;;;;;;;;2.00;2.00;;;;;23.63;37.46;100956.44;4972061;28;45513;-72
2022/12/30 02:14:58;;;;;;;;;3.00;3.00;;;;;23.65;37.70;100965.28;4962379;28;45501;-73
2022/12/30 02:17:43;;;;;;;;;2.67;1.00;;;;;23.61;37.87;100969.31;4970072;28;46138;-73
2022/12/30 02:20:46;;;;;;;;;1.00;1.00;;;;;23.64;37.54;100970.84;4973817;28;45597;-73
2022/12/30 02:23:17;;;;;;;;;1.00;1.00;;;;;23.63;37.68;100956.44;5010082;28;45623;-73
2022/12/30 02:26:20;;;;;;;;;0.67;0.67;;;;;23.62;37.53;100962.06;4984397;27;45722;-74
2022/12/30 02:29:06;;;;;;;;;2.00;2.00;;;;;23.62;37.55;100960.16;4975231;28;45426;-73
2022/12/30 02:31:54;;;;;;;;;1.00;1.00;;;;;23.60;37.54;100947.78;4971450;28;45614;-73
2022/12/30 02:34:40;;;;;;;;;1.67;1.67;;;;;23.54;37.26;100942.03;4996399;28;45922;-73
2022/12/30 02:37:48;;;;;;;;;2.00;2.00;;;;;23.59;37.80;100948.81;4978768;28;45488;-73
2022/12/30 02:40:22;;;;;;;;;2.00;2.00;;;;;23.57;37.71;100946.25;4934549;28;46589;-73
2022/12/30 02:45:54;;;;;;;;;0.67;0.67;;;;;23.57;37.70;100931.91;4931925;28;45516;-73
2022/12/30 02:48:27;;;;;;;;;3.67;2.00;;;;;23.59;37.34;100938.84;4935143;28;45559;-72
2022/12/30 02:53:40;;;;;;;;;1.00;1.00;;;;;23.46;37.71;100912.19;4931285;28;45468;-72
2022/12/30 02:56:07;;;;;;;;;1.67;1.67;;;;;23.54;37.50;100928.47;4930680;28;45365;-73
2022/12/30 02:58:36;;;;;;;;;2.00;2.00;;;;;23.56;37.54;100936.44;4930826;28;45593;-73
2022/12/30 03:04:31;;;;;;;;;1.00;1.00;;;;;23.53;37.76;100924.09;4922500;28;45481;-73
2022/12/30 03:07:08;;;;;;;;;2.67;2.00;;;;;23.49;37.63;100919.13;4928490;28;45431;-72
2022/12/30 03:12:55;;;;;;;;;4.00;2.00;;;;;23.49;37.55;100914.59;4972102;28;45949;-72
2022/12/30 03:15:30;;;;;;;;;1.67;1.67;;;;;23.49;37.62;100906.44;4953137;28;45547;-72
2022/12/30 03:17:57;;;;;;;;;2.00;2.00;;;;;23.48;37.50;100903.91;4954892;28;45554;-72
2022/12/30 03:20:24;;;;;;;;;1.33;1.33;;;;;23.45;37.44;100898.84;4952248;28;45683;-73
2022/12/30 03:28:27;;;;;;;;;1.67;1.67;;;;;23.45;37.70;100888.00;4958297;28;45631;-73
2022/12/30 03:31:01;;;;;;;;;1.00;1.00;;;;;23.45;37.36;100888.84;4995050;28;45423;-72
2022/12/30 03:33:28;;;;;;;;;2.00;2.00;;;;;23.42;37.42;100891.88;4948273;28;46316;-73
2022/12/30 03:36:00;;;;;;;;;2.67;2.67;;;;;23.41;37.45;100884.75;4947204;28;45891;-72
2022/12/30 03:38:33;;;;;;;;;4.33;1.00;;;;;23.42;37.49;100881.06;4951034;28;45505;-73
2022/12/30 03:41:02;;;;;;;;;1.33;1.00;;;;;23.35;37.61;100878.16;4949227;28;45803;-72
2022/12/30 03:43:27;;;;;;;;;1.00;1.00;;;;;23.40;37.81;100877.66;4949854;28;45533;-72
2022/12/30 03:45:53;;;;;;;;;1.33;1.33;;;;;23.43;37.82;100871.91;4989667;28;45581;-73
2022/12/30 03:48:19;;;;;;;;;1.00;1.00;;;;;23.42;37.58;100871.06;4955439;28;45622;-72
2022/12/30 03:50:45;;;;;;;;;4.33;2.00;;;;;23.45;37.85;100871.75;4950167;28;45528;-72
2022/12/30 03:53:10;;;;;;;;;1.33;1.00;;;;;23.40;37.58;100864.09;4992773;28;46572;-72
2022/12/30 03:55:36;;;;;;;;;1.00;1.00;;;;;23.43;37.42;100861.91;4970965;28;45385;-72
2022/12/30 03:58:01;;;;;;;;;2.00;2.00;;;;;23.43;37.44;100847.53;4993130;28;45482;-73
2022/12/30 04:00:26;;;;;;;;;2.67;2.00;;;;;23.48;37.57;100853.31;4994652;28;45666;-73
2022/12/30 04:02:52;;;;;;;;;2.33;2.00;;;;;23.48;37.55;100845.16;4979745;28;47020;-73
2022/12/30 04:05:17;;;;;;;;;2.00;2.00;;;;;23.40;37.32;100828.88;5001175;28;45380;-72
2022/12/30 04:07:42;;;;;;;;;1.00;1.00;;;;;23.39;37.15;100829.91;4994780;27;45503;-73
2022/12/30 04:10:08;;;;;;;;;1.00;1.00;;;;;23.46;37.42;100840.94;4984152;28;45584;-72
2022/12/30 04:12:33;;;;;;;;;1.00;0.67;;;;;23.49;37.56;100840.59;5000969;28;45780;-73
2022/12/30 04:14:59;;;;;;;;;3.00;1.67;;;;;23.51;37.85;100835.88;4979594;28;45364;-72
2022/12/30 04:17:24;;;;;;;;;1.67;1.67;;;;;23.56;37.72;100841.63;4970477;28;46244;-72
2022/12/30 04:19:49;;;;;;;;;2.67;1.00;;;;;23.57;37.52;100831.66;5037760;28;45492;-73
2022/12/30 04:22:15;;;;;;;;;2.00;2.00;;;;;23.62;37.12;100824.69;5012108;28;45535;-72
2022/12/30 04:24:40;;;;;;;;;1.00;1.00;;;;;23.67;37.33;100821.50;4973743;27;45590;-72
2022/12/30 04:27:05;;;;;;;;;1.00;1.00;;;;;23.59;37.28;100807.94;4971371;28;45771;-73
2022/12/30 04:29:30;;;;;;;;;1.00;1.00;;;;;23.72;37.67;100819.13;4991169;28;45361;-72
2022/12/30 04:31:56;;;;;;;;;1.00;1.00;;;;;23.73;37.37;100809.97;4985282;28;51143;-72
2022/12/30 04:34:21;;;;;;;;;0.67;0.67;;;;;23.72;37.69;100805.59;4984253;28;45622;-72
2022/12/30 04:36:46;;;;;;;;;2.33;1.67;;;;;23.76;37.52;100812.38;4971536;27;45644;-72
2022/12/30 04:39:12;;;;;;;;;2.00;2.00;;;;;23.76;37.71;100798.81;4970192;28;47242;-72
2022/12/30 04:41:38;;;;;;;;;0.00;0.00;;;;;23.80;37.66;100808.28;4989690;28;46721;-73
2022/12/30 04:44:04;;;;;;;;;1.00;1.00;;;;;23.85;37.39;100809.63;4970321;28;45372;-72
2022/12/30 04:46:30;;;;;;;;;1.00;1.00;;;;;23.86;37.66;100800.50;4971531;28;45531;-72
2022/12/30 04:48:55;;;;;;;;;2.33;1.00;;;;;23.86;37.57;100795.09;4964181;28;45623;-72
2022/12/30 04:51:21;;;;;;;;;1.00;1.00;;;;;23.87;37.35;100785.94;5026082;28;45351;-72
2022/12/30 04:53:47;;;;;;;;;1.00;1.00;;;;;23.85;37.37;100772.56;4974750;27;45415;-73
2022/12/30 04:56:12;;;;;;;;;1.67;1.67;;;;;23.96;37.51;100782.22;4974068;28;45391;-74
2022/12/30 04:58:38;;;;;;;;;0.00;0.00;;;;;23.95;37.33;100769.69;4976887;28;45360;-73
2022/12/30 05:01:04;;;;;;;;;2.67;2.00;;;;;24.01;37.28;100768.13;4968935;28;46032;-73
2022/12/30 05:03:30;;;;;;;;;1.00;1.00;;;;;24.03;37.46;100764.22;4985246;28;45540;-73
2022/12/30 05:05:56;;;;;;;;;1.00;1.00;;;;;24.05;36.92;100764.91;4972935;28;45654;-73
2022/12/30 05:08:21;;;;;;;;;3.00;1.00;;;;;24.08;37.22;100755.59;4976396;28;45397;-72
2022/12/30 05:10:47;;;;;;;;;2.67;1.00;;;;;24.07;37.33;100743.88;4978411;28;46529;-73
2022/12/30 05:13:12;;;;;;;;;1.00;1.00;;;;;24.12;37.34;100743.41;4973095;28;45948;-73
2022/12/30 05:15:37;;;;;;;;;1.33;1.00;;;;;24.15;37.31;100742.22;4986146;28;46174;-73
2022/12/30 05:18:03;;;;;;;;;1.00;1.00;;;;;24.16;37.22;100739.31;4983706;28;45721;-73
2022/12/30 05:20:28;;;;;;;;;2.00;1.00;;;;;24.18;37.06;100731.88;5016694;27;45948;-73
2022/12/30 05:22:54;;;;;;;;;1.00;1.00;;;;;24.15;37.28;100718.66;4998009;27;45557;-72
2022/12/30 05:28:03;;;;;;;;;2.00;1.00;;;;;24.20;37.24;100712.72;4974018;28;45969;-73
2022/12/30 05:30:29;;;;;;;;;0.00;0.00;;;;;24.20;37.06;100693.75;4970014;28;46447;-73
2022/12/30 05:32:54;;;;;;;;;1.00;1.00;;;;;24.23;37.25;100706.09;4972280;28;45744;-73
2022/12/30 05:35:19;;;;;;;;;0.33;0.33;;;;;24.24;37.17;100705.94;4984947;28;46382;-73
2022/12/30 05:37:45;;;;;;;;;1.00;1.00;;;;;24.23;37.17;100700.69;5000775;28;45420;-73
2022/12/30 05:40:11;;;;;;;;;1.00;1.00;;;;;24.21;37.18;100693.53;4987293;27;45605;-73
2022/12/30 05:42:37;;;;;;;;;1.00;1.00;;;;;24.25;37.22;100699.50;4969033;28;45332;-73
2022/12/30 05:45:03;;;;;;;;;1.00;1.00;;;;;24.19;37.31;100681.19;4988368;28;45443;-73
2022/12/30 05:47:28;;;;;;;;;2.00;2.00;;;;;24.27;37.20;100686.59;4966348;28;45526;-73
2022/12/30 05:49:54;;;;;;;;;0.00;0.00;;;;;24.23;37.13;100673.56;4972119;28;45928;-73
2022/12/30 05:52:19;;;;;;;;;1.00;1.00;;;;;24.23;37.03;100660.00;4968849;28;45565;-73
2022/12/30 05:54:44;;;;;;;;;0.00;0.00;;;;;24.29;37.00;100656.59;4970890;28;45383;-73
2022/12/30 05:57:10;;;;;;;;;0.00;0.00;;;;;24.27;37.21;100648.63;4978145;28;45596;-73
2022/12/30 05:59:35;;;;;;;;;1.00;1.00;;;;;24.27;37.14;100645.91;4973765;28;45709;-73
2022/12/30 06:02:01;;;;;;;;;2.00;2.00;;;;;24.19;37.00;100629.66;4967186;28;47182;-73
2022/12/30 06:04:27;;;;;;;;;1.33;1.33;;;;;24.21;37.03;100630.34;4970783;27;45448;-73
2022/12/30 06:06:52;;;;;;;;;1.00;1.00;;;;;24.26;37.08;100627.94;4978926;28;45426;-73
2022/12/30 06:09:18;;;;;;;;;0.00;0.00;;;;;24.27;37.22;100631.50;4973517;28;46449;-73
2022/12/30 06:11:43;;;;;;;;;2.00;1.00;;;;;24.24;36.93;100621.00;4972657;28;45443;-73
2022/12/30 06:14:10;;;;;;;;;1.00;0.00;;;;;24.16;36.85;100606.44;4999878;28;45516;-73
2022/12/30 06:16:35;;;;;;;;;0.00;0.00;;;;;24.21;37.09;100609.47;5037148;28;45739;-73
2022/12/30 06:19:00;;;;;;;;;0.00;0.00;;;;;24.24;36.94;100611.03;4971766;28;47852;-73
2022/12/30 06:21:26;;;;;;;;;0.00;0.00;;;;;24.17;36.96;100597.31;4971503;28;45324;-72
2022/12/30 06:23:51;;;;;;;;;0.00;0.00;;;;;24.20;37.00;100596.13;4975071;28;45557;-74
2022/12/30 06:26:16;;;;;;;;;1.33;1.33;;;;;24.23;36.84;100586.78;4972248;28;45434;-73
2022/12/30 06:28:41;;;;;;;;;1.00;1.00;;;;;24.20;37.25;100591.53;5008245;28;46041;-74
2022/12/30 06:31:07;;;;;;;;;0.00;0.00;;;;;24.13;37.12;100579.72;4965122;28;45425;-73
2022/12/30 06:33:32;;;;;;;;;1.00;1.00;;;;;24.13;36.99;100579.72;4970365;28;45455;-73
2022/12/30 06:35:57;;;;;;;;;2.33;0.00;;;;;24.20;37.07;100587.97;4991042;28;46421;-74
2022/12/30 06:38:23;;;;;;;;;1.00;0.00;;;;;24.17;36.98;100580.19;4963846;28;45535;-74
2022/12/30 06:40:48;;;;;;;;;1.00;1.00;;;;;24.18;36.96;100569.19;4965879;28;45973;-73
2022/12/30 06:43:14;;;;;;;;;0.67;0.33;;;;;24.18;37.07;100561.03;4972191;28;45578;-74
2022/12/30 06:45:39;;;;;;;;;0.00;0.00;;;;;24.14;36.71;100551.56;4976549;28;45468;-73
2022/12/30 06:48:05;;;;;;;;;0.33;0.33;;;;;24.18;37.05;100554.75;4970557;28;46044;-73
2022/12/30 06:50:31;;;;;;;;;0.00;0.00;;;;;24.17;36.79;100536.81;4968526;28;46474;-73
2022/12/30 06:52:57;;;;;;;;;0.67;0.67;;;;;24.16;36.96;100527.81;4969776;28;45617;-72
2022/12/30 06:55:22;;;;;;;;;0.67;0.67;;;;;24.20;37.09;100531.88;4972142;28;45911;-72
2022/12/30 06:57:48;;;;;;;;;0.00;0.00;;;;;24.23;36.98;100527.13;4961692;28;45983;-72
2022/12/30 07:00:14;;;;;;;;;1.00;1.00;;;;;24.35;37.19;100531.09;5002718;28;45551;-72
2022/12/30 07:02:40;;;;;;;;;2.00;0.00;;;;;24.39;36.90;100515.34;5026285;27;45883;-72
2022/12/30 07:05:06;;;;;;;;;0.00;0.00;;;;;24.52;37.19;100509.31;4973491;28;45489;-73
2022/12/30 07:07:31;;;;;;;;;0.67;0.67;;;;;24.60;37.27;100506.50;4967421;28;47053;-72
2022/12/30 07:09:57;;;;;;;;;1.00;1.00;;;;;24.74;37.25;100499.47;4969634;28;45794;-74
2022/12/30 07:12:22;;;;;;;;;1.00;1.00;;;;;24.84;37.20;100499.22;4973802;28;45376;-73
2022/12/30 07:14:47;;;;;;;;;1.00;1.00;;;;;24.89;37.14;100485.13;4975865;28;45725;-72
2022/12/30 07:17:13;;;;;;;;;1.00;0.00;;;;;24.99;37.33;100477.53;4979216;28;45351;-72
2022/12/30 07:19:38;;;;;;;;;1.00;1.00;;;;;25.07;37.16;100476.63;5040096;28;45360;-73
2022/12/30 07:22:03;;;;;;;;;1.00;1.00;;;;;25.11;37.36;100476.06;4997296;28;45724;-72
2022/12/30 07:24:29;;;;;;;;;1.00;1.00;;;;;25.16;37.32;100464.66;4974532;28;45358;-72
2022/12/30 07:26:54;;;;;;;;;1.00;0.00;;;;;25.23;36.92;100462.03;4977925;28;45502;-75
2022/12/30 07:29:20;;;;;;;;;0.00;0.00;;;;;25.23;37.11;100454.72;4968252;28;46325;-74
2022/12/30 07:31:46;;;;;;;;;0.00;0.00;;;;;25.31;36.91;100455.66;4965467;28;45860;-74
2022/12/30 07:34:11;;;;;;;;;0.00;0.00;;;;;25.35;37.25;100446.09;4980023;28;46048;-71
2022/12/30 07:36:38;;;;;;;;;2.67;2.00;;;;;25.41;36.84;100437.19;4982360;28;47522;-72
2022/12/30 07:39:03;;;;;;;;;1.00;1.00;;;;;25.47;37.29;100441.84;4981630;28;45658;-73
2022/12/30 07:41:28;;;;;;;;;0.67;0.00;;;;;25.50;37.24;100435.25;4966190;28;45711;-73
2022/12/30 07:43:54;;;;;;;;;2.00;0.00;;;;;25.52;36.86;100433.16;4971805;28;45471;-74
2022/12/30 07:46:19;;;;;;;;;0.00;0.00;;;;;25.57;36.94;100429.88;4969710;28;46352;-73
2022/12/30 07:48:45;;;;;;;;;2.00;0.00;;;;;25.65;37.50;100432.50;4968795;28;45401;-72
2022/12/30 07:51:14;;;;;;;;;0.00;0.00;;;;;25.69;37.10;100430.25;4974087;28;45460;-73
2022/12/30 07:53:40;;;;;;;;;1.33;0.00;;;;;25.65;37.16;100416.19;4978069;28;45321;-72
2022/12/30 07:56:08;;;;;;;;;2.00;0.67;;;;;25.76;37.09;100433.91;4970961;28;45439;-73
2022/12/30 07:58:34;;;;;;;;;0.33;0.33;;;;;25.80;37.07;100437.91;4974482;28;45573;-72
2022/12/30 08:01:05;;;;;;;;;2.00;0.33;;;;;25.76;37.05;100429.28;4966743;28;45460;-72
2022/12/30 08:03:30;;;;;;;;;1.00;1.00;;;;;25.80;37.01;100427.06;4973157;28;45524;-74
2022/12/30 08:05:56;;;;;;;;;1.00;1.00;;;;;25.82;36.94;100422.25;4981926;28;46455;-75
2022/12/30 08:08:21;;;;;;;;;1.00;0.00;;;;;25.81;37.14;100415.13;4967274;28;48304;-77
2022/12/30 08:10:57;;;;;;;;;0.67;0.67;;;;;25.86;37.20;100419.97;4972425;28;46670;-73
2022/12/30 08:13:22;;;;;;;;;1.67;0.00;;;;;25.78;36.93;100400.06;4983111;28;45362;-72
2022/12/30 08:15:48;;;;;;;;;0.00;0.00;;;;;25.84;37.08;100412.03;4978814;28;45940;-72
2022/12/30 08:18:13;;;;;;;;;0.00;0.00;;;;;25.84;36.93;100398.44;4961574;28;47178;-72
2022/12/30 08:20:38;;;;;;;;;1.67;1.00;;;;;25.86;37.17;100398.22;4962286;28;45687;-72
2022/12/30 08:23:04;;;;;;;;;0.00;0.00;;;;;25.89;36.85;100396.00;4963369;28;47814;-72
2022/12/30 08:25:29;;;;;;;;;0.00;0.00;;;;;25.95;36.97;100407.94;4961731;28;48672;-72
2022/12/30 08:27:54;;;;;;;;;0.33;0.33;;;;;25.97;37.03;100400.47;4963117;28;45477;-72
2022/12/30 08:30:19;;;;;;;;;0.00;0.00;;;;;25.91;37.36;100376.75;4965211;28;50799;-72
2022/12/30 08:32:45;;;;;;;;;0.00;0.00;;;;;25.98;37.16;100387.69;4970138;28;45699;-73
2022/12/30 08:35:10;;;;;;;;;0.00;0.00;;;;;25.96;36.73;100376.19;4966664;28;45455;-73
2022/12/30 08:37:36;;;;;;;;;0.67;0.00;;;;;25.95;36.89;100361.72;4994910;27;45411;-73
2022/12/30 08:40:01;;;;;;;;;0.00;0.00;;;;;25.90;37.11;100365.03;4973366;28;45491;-74
2022/12/30 08:42:27;;;;;;;;;0.67;0.67;;;;;25.91;36.95;100364.00;4968326;28;45441;-74
2022/12/30 08:44:52;;;;;;;;;1.00;1.00;;;;;25.88;36.63;100355.41;4974321;28;47867;-75
2022/12/30 08:47:17;;;;;;;;;2.00;1.00;;;;;25.88;37.33;100353.50;5007709;28;45744;-72
2022/12/30 08:49:43;;;;;;;;;1.00;1.00;;;;;25.88;36.70;100350.78;4969230;28;45732;-75
2022/12/30 08:52:08;;;;;;;;;3.00;1.00;;;;;25.82;37.38;100329.81;4979802;28;45559;-72
2022/12/30 08:54:33;;;;;;;;;1.00;1.00;;;;;25.88;36.82;100336.38;5002993;28;46584;-73
2022/12/30 08:56:59;;;;;;;;;2.00;0.00;;;;;25.88;37.33;100337.19;4968291;28;46601;-72
2022/12/30 08:59:24;;;;;;;;;1.00;1.00;;;;;25.91;37.25;100333.25;4987882;28;45345;-76
2022/12/30 09:01:49;;;;;;;;;0.00;0.00;;;;;25.88;36.83;100320.06;4974240;27;46436;-76
2022/12/30 09:04:15;;;;;;;;;2.67;0.67;;;;;25.87;36.78;100316.50;4977586;28;45458;-77
2022/12/30 09:06:41;;;;;;;;;5.33;1.33;;;;;25.88;36.77;100301.84;4970487;28;45500;-73
2022/12/30 09:09:09;;;;;;;;;0.00;0.00;;;;;25.91;37.21;100306.06;4997884;28;45652;-75
2022/12/30 09:11:37;;;;;;;;;0.00;0.00;;;;;25.91;37.37;100297.91;4981808;27;45365;-75
2022/12/30 09:14:05;;;;;;;;;0.00;0.00;;;;;25.89;37.33;100287.25;4968487;28;45461;-75
2022/12/30 09:16:31;;;;;;;;;1.00;0.00;;;;;25.87;36.99;100283.03;4977446;28;45507;-74
2022/12/30 09:18:56;;;;;;;;;0.00;0.00;;;;;25.88;36.81;100265.69;4973288;28;45451;-76
2022/12/30 09:21:22;;;;;;;;;0.33;0.33;;;;;25.79;37.46;100245.97;4972692;28;45387;-75
2022/12/30 09:23:48;;;;;;;;;0.00;0.00;;;;;25.85;37.34;100256.06;4973822;28;46567;-76
2022/12/30 09:26:25;;;;;;;;;2.00;1.00;;;;;25.86;37.24;100256.88;4973208;28;45931;-77
2022/12/30 09:28:51;;;;;;;;;0.00;0.00;;;;;25.84;37.35;100262.53;4964763;28;45320;-76
2022/12/30 09:31:17;;;;;;;;;0.00;0.00;;;;;25.82;37.21;100252.88;4979945;28;45456;-72
2022/12/30 09:33:42;;;;;;;;;0.00;0.00;;;;;25.80;37.02;100258.53;4974186;28;45491;-71
2022/12/30 09:36:09;;;;;;;;;0.67;0.67;;;;;25.71;37.21;100263.22;4968539;28;45589;-72
2022/12/30 09:38:34;;;;;;;;;2.67;0.00;;;;;25.68;36.93;100260.91;4966181;28;45478;-71
2022/12/30 09:44:31;;;;;;;;;1.00;1.00;;;;;25.57;36.78;100251.41;4968952;28;45467;-73
2022/12/30 09:47:30;;;;;;;;;1.00;1.00;;;;;25.50;36.67;100248.59;4967382;28;45907;-71
2022/12/30 09:50:07;;;;;;;;;1.00;1.00;;;;;25.44;36.51;100241.22;4966401;28;46433;-72
2022/12/30 09:52:49;;;;;;;;;3.00;2.00;;;;;25.37;36.89;100240.28;4968817;28;46108;-72
2022/12/30 09:55:23;;;;;;;;;6.67;1.00;;;;;25.27;36.73;100233.31;4964392;28;46231;-72
2022/12/30 09:57:54;;;;;;;;;0.00;0.00;;;;;25.23;36.65;100223.88;4967663;28;45530;-72
2022/12/30 10:00:22;;;;;;;;;3.33;2.00;;;;;25.20;36.54;100221.53;4972162;28;45794;-71
2022/12/30 10:02:53;;;;;;;;;3.00;2.00;;;;;25.12;36.51;100210.78;4966028;28;45524;-71
2022/12/30 10:05:33;;;;;;;;;3.00;1.33;;;;;25.10;37.06;100224.56;4969407;28;45542;-71
2022/12/30 10:08:15;;;;;;;;;3.00;3.00;;;;;25.02;36.56;100202.97;4968955;28;45767;-71
2022/12/30 10:10:47;;;;;;;;;4.00;3.00;;;;;25.00;36.83;100189.59;4970198;28;45653;-71
2022/12/30 10:13:39;;;;;;;;;2.00;2.00;;;;;24.96;36.75;100191.00;4969601;28;45507;-71
2022/12/30 10:16:13;;;;;;;;;4.00;2.33;;;;;24.96;36.80;100184.72;4988206;28;46693;-71
2022/12/30 10:18:54;;;;;;;;;8.00;2.00;;;;;24.96;36.87;100179.28;4933897;28;45529;-71
2022/12/30 10:21:35;;;;;;;;;1.33;1.33;;;;;24.90;36.74;100159.19;4910206;28;45509;-71
2022/12/30 10:24:21;;;;;;;;;4.00;1.00;;;;;24.92;36.94;100150.84;4912190;28;45503;-71
2022/12/30 10:26:49;;;;;;;;;2.00;2.00;;;;;24.93;37.04;100161.50;4917041;28;45537;-71
2022/12/30 10:29:33;;;;;;;;;3.00;3.00;;;;;24.91;36.91;100138.31;4911132;28;45546;-71
2022/12/30 10:32:24;;;;;;;;;3.67;3.67;;;;;24.92;36.76;100142.69;4912739;28;45827;-71
2022/12/30 10:35:05;;;;;;;;;3.00;1.00;;;;;24.86;36.72;100139.72;4912983;28;45410;-71
2022/12/30 10:37:33;;;;;;;;;1.00;1.00;;;;;24.86;36.99;100120.72;4911876;28;45736;-71
2022/12/30 10:40:01;;;;;;;;;2.00;2.00;;;;;24.89;36.96;100143.94;4913439;28;45534;-71
2022/12/30 10:43:00;;;;;;;;;2.67;2.00;;;;;24.79;37.03;100106.22;4911139;28;45441;-71
2022/12/30 10:45:45;;;;;;;;;1.33;1.33;;;;;24.89;37.07;100116.78;4909160;28;45725;-72
2022/12/30 10:48:35;;;;;;;;;3.00;3.00;;;;;24.88;36.84;100127.84;4914236;28;45592;-71
2022/12/30 10:51:00;;;;;;;;;4.67;2.33;;;;;24.83;37.10;100102.13;4903544;28;45509;-71
2022/12/30 10:53:29;;;;;;;;;1.33;1.00;;;;;24.85;36.99;100072.91;4948036;28;45507;-71
2022/12/30 10:55:58;;;;;;;;;3.67;1.33;;;;;24.86;36.90;100103.63;4972358;28;45459;-71
2022/12/30 10:58:34;;;;;;;;;4.00;1.00;;;;;24.84;36.57;100095.66;4962803;28;46390;-72
2022/12/30 11:01:01;;;;;;;;;2.33;1.67;;;;;24.84;36.66;100094.81;4966657;28;46723;-71
2022/12/30 11:03:29;;;;;;;;;1.67;1.67;;;;;24.85;36.97;100082.94;4971898;28;45864;-69
2022/12/30 11:05:55;;;;;;;;;7.00;2.67;;;;;24.79;36.50;100073.66;4965136;28;45419;-71
2022/12/30 11:08:29;;;;;;;;;3.67;1.00;;;;;24.83;36.81;100042.41;4965978;28;45344;-72
2022/12/30 11:11:06;;;;;;;;;2.33;1.00;;;;;24.80;36.82;100050.09;4986150;27;45749;-71
2022/12/30 11:16:24;;;;;;;;;1.33;1.00;;;;;24.77;36.70;100040.44;4963854;28;45313;-74
2022/12/30 11:18:50;;;;;;;;;1.00;1.00;;;;;24.72;36.96;100013.03;4971777;28;46230;-73
2022/12/30 11:21:27;;;;;;;;;2.00;2.00;;;;;24.78;36.87;100030.44;4971738;28;45634;-74
2022/12/30 11:23:56;;;;;;;;;4.00;0.67;;;;;24.74;36.83;100019.13;4961346;28;45604;-73
2022/12/30 11:26:24;;;;;;;;;4.33;1.00;;;;;24.76;36.71;100055.03;4971213;28;45667;-72
2022/12/30 11:29:01;;;;;;;;;1.00;1.00;;;;;24.75;36.69;100050.66;4969588;28;47040;-72
2022/12/30 11:31:33;;;;;;;;;1.00;0.33;;;;;24.73;37.06;100020.16;4972738;28;45324;-72
2022/12/30 11:34:01;;;;;;;;;1.33;1.33;;;;;24.66;36.79;99989.41;4967940;28;45539;-72
2022/12/30 11:36:26;;;;;;;;;1.00;1.00;;;;;24.73;37.30;100014.75;4965873;28;45434;-72
2022/12/30 11:38:53;;;;;;;;;0.33;0.00;;;;;24.73;36.79;100003.88;4972052;28;45367;-72
2022/12/30 11:41:20;;;;;;;;;1.00;1.00;;;;;24.72;36.94;100013.88;4971022;28;45479;-72
2022/12/30 11:43:51;;;;;;;;;1.00;1.00;;;;;24.69;37.01;100008.03;4972942;28;45762;-71
2022/12/30 11:46:22;;;;;;;;;1.00;0.00;;;;;24.71;37.08;100012.22;4972740;28;45304;-72
2022/12/30 11:48:54;;;;;;;;;0.33;0.00;;;;;24.71;36.75;100020.38;4969997;28;45367;-72
2022/12/30 11:51:22;;;;;;;;;2.00;1.33;;;;;24.71;37.04;100027.66;4968832;28;45393;-72
2022/12/30 11:54:00;;;;;;;;;2.67;0.00;;;;;24.72;37.00;100021.19;4959906;28;45534;-72
2022/12/30 11:56:26;;;;;;;;;1.33;1.00;;;;;24.69;36.81;100035.97;4966360;28;45725;-72
2022/12/30 11:58:51;;;;;;;;;1.67;1.00;;;;;24.68;37.17;100022.63;4971796;28;46432;-71
2022/12/30 12:01:16;;;;;;;;;0.67;0.67;;;;;24.70;36.80;100024.13;4965940;28;45671;-72
2022/12/30 12:03:58;;;;;;;;;2.00;2.00;;;;;24.71;36.98;100016.78;4972649;28;47397;-72
2022/12/30 12:06:23;;;;;;;;;3.00;1.00;;;;;24.69;36.81;100014.28;4972992;28;45373;-72
2022/12/30 12:09:09;;;;;;;;;2.00;2.00;;;;;24.67;36.85;100016.34;4969741;28;46465;-72
2022/12/30 12:11:44;;;;;;;;;2.67;2.00;;;;;24.65;37.02;100029.28;4975270;28;45391;-72
2022/12/30 12:14:37;;;;;;;;;0.67;0.67;;;;;24.61;36.98;100006.28;4973634;28;45685;-72
2022/12/30 12:17:33;;;;;;;;;2.33;2.00;;;;;24.59;37.01;100009.19;4959310;28;45496;-72
2022/12/30 12:20:03;;;;;;;;;1.00;0.00;;;;;24.56;37.20;100006.84;4974799;28;45621;-72
2022/12/30 12:22:36;;;;;;;;;2.33;1.00;;;;;24.55;36.88;100007.03;4974014;28;45504;-72
2022/12/30 12:25:13;;;;;;;;;1.00;1.00;;;;;24.54;37.11;99997.22;4972337;28;45432;-72
2022/12/30 12:27:38;;;;;;;;;1.00;1.00;;;;;24.53;37.01;100004.53;4973883;28;45423;-72
2022/12/30 12:30:10;;;;;;;;;1.00;1.00;;;;;24.56;37.05;100000.59;4976890;28;45336;-72
2022/12/30 12:32:48;;;;;;;;;3.00;2.67;;;;;24.54;37.20;100002.66;4973871;28;45493;-72
2022/12/30 12:35:24;;;;;;;;;0.67;0.67;;;;;24.51;37.22;99984.88;4971843;28;45479;-72